sensor_id;sensor_type;location;lat;lon;timestamp;P1;durP1;ratioP1;P2;durP2;ratioP2
20593;SDS011;10455;48.732;10.266;2022-12-07T00:03:53;19.40;;;17.10;;
20593;SDS011;10455;48.732;10.266;2022-12-07T00:09:02;20.83;;;18.53;;
20593;SDS011;10455;48.732;10.266;2022-12-07T00:14:05;24.40;;;19.23;;
20593;SDS011;10455;48.732;10.266;2022-12-07T00:19:09;19.73;;;17.27;;
20593;SDS011;10455;48.732;10.266;2022-12-07T00:24:13;18.27;;;16.37;;
20593;SDS011;10455;48.732;10.266;2022-12-07T00:29:15;20.87;;;17.37;;
20593;SDS011;10455;48.732;10.266;2022-12-07T00:34:19;18.63;;;16.07;;
20593;SDS011;10455;48.732;10.266;2022-12-07T00:39:23;19.63;;;16.77;;
20593;SDS011;10455;48.732;10.266;2022-12-07T00:44:25;20.53;;;17.93;;
20593;SDS011;10455;48.732;10.266;2022-12-07T00:49:27;19.97;;;17.70;;
20593;SDS011;10455;48.732;10.266;2022-12-07T00:54:31;20.87;;;17.97;;
20593;SDS011;10455;48.732;10.266;2022-12-07T00:59:32;21.43;;;18.53;;
20593;SDS011;10455;48.732;10.266;2022-12-07T01:04:34;25.43;;;20.43;;
20593;SDS011;10455;48.732;10.266;2022-12-07T01:09:38;26.27;;;21.43;;
20593;SDS011;10455;48.732;10.266;2022-12-07T01:14:41;27.20;;;21.97;;
20593;SDS011;10455;48.732;10.266;2022-12-07T01:19:43;25.97;;;21.70;;
20593;SDS011;10455;48.732;10.266;2022-12-07T01:24:46;27.90;;;22.07;;
20593;SDS011;10455;48.732;10.266;2022-12-07T01:29:48;27.40;;;22.70;;
20593;SDS011;10455;48.732;10.266;2022-12-07T01:34:51;25.63;;;20.87;;
20593;SDS011;10455;48.732;10.266;2022-12-07T01:39:55;26.47;;;21.30;;
20593;SDS011;10455;48.732;10.266;2022-12-07T01:50:41;24.43;;;18.90;;
20593;SDS011;10455;48.732;10.266;2022-12-07T01:55:47;23.17;;;18.97;;
20593;SDS011;10455;48.732;10.266;2022-12-07T02:00:53;21.53;;;17.53;;
20593;SDS011;10455;48.732;10.266;2022-12-07T02:05:54;24.87;;;19.37;;
20593;SDS011;10455;48.732;10.266;2022-12-07T02:11:00;26.73;;;20.53;;
20593;SDS011;10455;48.732;10.266;2022-12-07T02:16:09;21.93;;;17.83;;
20593;SDS011;10455;48.732;10.266;2022-12-07T02:21:24;24.60;;;19.13;;
20593;SDS011;10455;48.732;10.266;2022-12-07T02:32:18;22.77;;;19.07;;
20593;SDS011;10455;48.732;10.266;2022-12-07T02:37:27;24.10;;;20.33;;
20593;SDS011;10455;48.732;10.266;2022-12-07T02:42:38;26.70;;;20.37;;
20593;SDS011;10455;48.732;10.266;2022-12-07T02:47:45;26.17;;;20.57;;
20593;SDS011;10455;48.732;10.266;2022-12-07T02:52:52;25.60;;;19.77;;
20593;SDS011;10455;48.732;10.266;2022-12-07T02:57:59;24.40;;;18.53;;
20593;SDS011;10455;48.732;10.266;2022-12-07T03:03:15;21.73;;;18.37;;
20593;SDS011;10455;48.732;10.266;2022-12-07T03:08:19;22.87;;;18.73;;
20593;SDS011;10455;48.732;10.266;2022-12-07T03:13:28;24.83;;;19.20;;
20593;SDS011;10455;48.732;10.266;2022-12-07T03:18:35;26.17;;;20.70;;
20593;SDS011;10455;48.732;10.266;2022-12-07T03:23:40;25.77;;;20.63;;
20593;SDS011;10455;48.732;10.266;2022-12-07T03:28:46;25.33;;;20.27;;
20593;SDS011;10455;48.732;10.266;2022-12-07T03:33:56;25.83;;;20.20;;
20593;SDS011;10455;48.732;10.266;2022-12-07T03:39:04;27.67;;;19.30;;
20593;SDS011;10455;48.732;10.266;2022-12-07T03:44:17;28.33;;;21.00;;
20593;SDS011;10455;48.732;10.266;2022-12-07T03:49:21;27.60;;;21.60;;
20593;SDS011;10455;48.732;10.266;2022-12-07T03:54:28;28.67;;;21.90;;
20593;SDS011;10455;48.732;10.266;2022-12-07T03:59:34;32.17;;;24.00;;
20593;SDS011;10455;48.732;10.266;2022-12-07T04:04:38;28.30;;;21.23;;
20593;SDS011;10455;48.732;10.266;2022-12-07T04:09:40;33.80;;;24.87;;
20593;SDS011;10455;48.732;10.266;2022-12-07T04:14:42;35.37;;;24.60;;
20593;SDS011;10455;48.732;10.266;2022-12-07T04:19:45;29.33;;;21.90;;
20593;SDS011;10455;48.732;10.266;2022-12-07T04:24:47;30.33;;;21.17;;
20593;SDS011;10455;48.732;10.266;2022-12-07T04:29:49;27.27;;;19.97;;
20593;SDS011;10455;48.732;10.266;2022-12-07T04:34:53;29.60;;;22.40;;
20593;SDS011;10455;48.732;10.266;2022-12-07T04:39:54;29.43;;;21.47;;
20593;SDS011;10455;48.732;10.266;2022-12-07T04:44:56;28.10;;;20.67;;
20593;SDS011;10455;48.732;10.266;2022-12-07T04:50:00;27.80;;;20.20;;
20593;SDS011;10455;48.732;10.266;2022-12-07T04:55:02;26.83;;;19.70;;
20593;SDS011;10455;48.732;10.266;2022-12-07T05:00:06;30.80;;;19.63;;
20593;SDS011;10455;48.732;10.266;2022-12-07T05:05:10;24.90;;;18.90;;
20593;SDS011;10455;48.732;10.266;2022-12-07T05:10:12;33.40;;;20.73;;
20593;SDS011;10455;48.732;10.266;2022-12-07T05:15:14;29.83;;;21.83;;
20593;SDS011;10455;48.732;10.266;2022-12-07T05:20:18;30.80;;;21.97;;
20593;SDS011;10455;48.732;10.266;2022-12-07T05:25:19;29.37;;;21.13;;
20593;SDS011;10455;48.732;10.266;2022-12-07T05:30:21;32.13;;;21.03;;
20593;SDS011;10455;48.732;10.266;2022-12-07T05:35:25;28.87;;;20.70;;
20593;SDS011;10455;48.732;10.266;2022-12-07T05:40:27;31.17;;;22.50;;
20593;SDS011;10455;48.732;10.266;2022-12-07T05:45:29;30.37;;;22.57;;
20593;SDS011;10455;48.732;10.266;2022-12-07T05:50:32;31.20;;;22.63;;
20593;SDS011;10455;48.732;10.266;2022-12-07T05:55:34;31.30;;;22.40;;
20593;SDS011;10455;48.732;10.266;2022-12-07T06:00:36;32.57;;;21.87;;
20593;SDS011;10455;48.732;10.266;2022-12-07T06:05:39;31.37;;;23.37;;
20593;SDS011;10455;48.732;10.266;2022-12-07T06:10:41;28.13;;;20.87;;
20593;SDS011;10455;48.732;10.266;2022-12-07T06:15:43;29.87;;;21.80;;
20593;SDS011;10455;48.732;10.266;2022-12-07T06:20:46;27.50;;;20.63;;
20593;SDS011;10455;48.732;10.266;2022-12-07T06:25:48;26.00;;;20.53;;
20593;SDS011;10455;48.732;10.266;2022-12-07T06:30:56;29.63;;;21.77;;
20593;SDS011;10455;48.732;10.266;2022-12-07T06:35:59;26.63;;;20.07;;
20593;SDS011;10455;48.732;10.266;2022-12-07T06:41:01;27.07;;;21.33;;
20593;SDS011;10455;48.732;10.266;2022-12-07T06:46:03;30.60;;;22.07;;
20593;SDS011;10455;48.732;10.266;2022-12-07T06:51:07;30.30;;;21.83;;
20593;SDS011;10455;48.732;10.266;2022-12-07T06:56:09;27.80;;;20.33;;
20593;SDS011;10455;48.732;10.266;2022-12-07T07:01:12;30.10;;;19.93;;
20593;SDS011;10455;48.732;10.266;2022-12-07T07:06:16;27.67;;;21.53;;
20593;SDS011;10455;48.732;10.266;2022-12-07T07:11:18;30.67;;;21.90;;
20593;SDS011;10455;48.732;10.266;2022-12-07T07:16:20;32.13;;;20.67;;
20593;SDS011;10455;48.732;10.266;2022-12-07T07:21:23;36.50;;;21.87;;
20593;SDS011;10455;48.732;10.266;2022-12-07T07:26:25;30.30;;;21.57;;
20593;SDS011;10455;48.732;10.266;2022-12-07T07:31:27;29.30;;;21.37;;
20593;SDS011;10455;48.732;10.266;2022-12-07T07:36:30;30.93;;;21.53;;
20593;SDS011;10455;48.732;10.266;2022-12-07T07:41:32;29.57;;;19.10;;
20593;SDS011;10455;48.732;10.266;2022-12-07T07:46:34;22.50;;;18.13;;
20593;SDS011;10455;48.732;10.266;2022-12-07T07:51:37;22.63;;;17.40;;
20593;SDS011;10455;48.732;10.266;2022-12-07T07:56:39;24.13;;;16.53;;
20593;SDS011;10455;48.732;10.266;2022-12-07T08:01:41;20.77;;;16.50;;
20593;SDS011;10455;48.732;10.266;2022-12-07T08:06:44;21.93;;;17.03;;
20593;SDS011;10455;48.732;10.266;2022-12-07T08:11:46;23.07;;;15.63;;
20593;SDS011;10455;48.732;10.266;2022-12-07T08:16:48;17.97;;;14.17;;
20593;SDS011;10455;48.732;10.266;2022-12-07T08:21:51;19.60;;;13.83;;
20593;SDS011;10455;48.732;10.266;2022-12-07T08:26:55;15.83;;;13.13;;
20593;SDS011;10455;48.732;10.266;2022-12-07T08:31:57;21.50;;;13.83;;
20593;SDS011;10455;48.732;10.266;2022-12-07T08:37:02;15.30;;;11.70;;
20593;SDS011;10455;48.732;10.266;2022-12-07T08:42:04;15.00;;;10.87;;
20593;SDS011;10455;48.732;10.266;2022-12-07T08:47:05;13.57;;;9.90;;
20593;SDS011;10455;48.732;10.266;2022-12-07T08:52:10;11.63;;;9.03;;
20593;SDS011;10455;48.732;10.266;2022-12-07T08:57:12;9.40;;;8.00;;
20593;SDS011;10455;48.732;10.266;2022-12-07T09:02:14;8.97;;;7.70;;
20593;SDS011;10455;48.732;10.266;2022-12-07T09:07:17;8.83;;;7.93;;
20593;SDS011;10455;48.732;10.266;2022-12-07T09:12:19;8.77;;;7.77;;
20593;SDS011;10455;48.732;10.266;2022-12-07T09:17:21;9.17;;;7.33;;
20593;SDS011;10455;48.732;10.266;2022-12-07T09:22:25;8.53;;;7.53;;
20593;SDS011;10455;48.732;10.266;2022-12-07T09:27:30;8.57;;;7.20;;
20593;SDS011;10455;48.732;10.266;2022-12-07T09:32:32;10.30;;;7.07;;
20593;SDS011;10455;48.732;10.266;2022-12-07T09:37:35;7.83;;;6.90;;
20593;SDS011;10455;48.732;10.266;2022-12-07T09:42:37;7.30;;;5.47;;
20593;SDS011;10455;48.732;10.266;2022-12-07T09:47:43;7.00;;;6.30;;
20593;SDS011;10455;48.732;10.266;2022-12-07T09:52:47;8.33;;;6.30;;
20593;SDS011;10455;48.732;10.266;2022-12-07T09:57:49;8.90;;;6.63;;
20593;SDS011;10455;48.732;10.266;2022-12-07T10:02:53;10.57;;;5.83;;
20593;SDS011;10455;48.732;10.266;2022-12-07T10:07:58;7.30;;;6.03;;
20593;SDS011;10455;48.732;10.266;2022-12-07T10:13:01;9.00;;;6.67;;
20593;SDS011;10455;48.732;10.266;2022-12-07T10:18:13;10.00;;;5.90;;
20593;SDS011;10455;48.732;10.266;2022-12-07T10:23:20;7.53;;;5.90;;
20593;SDS011;10455;48.732;10.266;2022-12-07T10:28:22;10.83;;;7.07;;
20593;SDS011;10455;48.732;10.266;2022-12-07T10:33:28;7.00;;;5.80;;
20593;SDS011;10455;48.732;10.266;2022-12-07T10:38:35;10.50;;;5.90;;
20593;SDS011;10455;48.732;10.266;2022-12-07T10:43:47;11.57;;;6.37;;
20593;SDS011;10455;48.732;10.266;2022-12-07T10:48:55;11.47;;;6.27;;
20593;SDS011;10455;48.732;10.266;2022-12-07T10:54:10;5.90;;;5.33;;
20593;SDS011;10455;48.732;10.266;2022-12-07T10:59:21;7.73;;;6.13;;
20593;SDS011;10455;48.732;10.266;2022-12-07T11:04:38;7.93;;;6.30;;
20593;SDS011;10455;48.732;10.266;2022-12-07T11:09:58;9.00;;;8.07;;
20593;SDS011;10455;48.732;10.266;2022-12-07T11:15:11;10.17;;;6.53;;
20593;SDS011;10455;48.732;10.266;2022-12-07T11:20:27;6.80;;;6.00;;
20593;SDS011;10455;48.732;10.266;2022-12-07T11:25:39;7.97;;;6.30;;
20593;SDS011;10455;48.732;10.266;2022-12-07T11:30:50;7.40;;;6.63;;
20593;SDS011;10455;48.732;10.266;2022-12-07T11:36:01;6.87;;;6.00;;
20593;SDS011;10455;48.732;10.266;2022-12-07T11:41:11;7.13;;;6.40;;
20593;SDS011;10455;48.732;10.266;2022-12-07T11:46:16;7.90;;;7.10;;
20593;SDS011;10455;48.732;10.266;2022-12-07T11:51:19;7.00;;;6.33;;
20593;SDS011;10455;48.732;10.266;2022-12-07T11:56:25;5.83;;;5.17;;
20593;SDS011;10455;48.732;10.266;2022-12-07T12:01:31;8.30;;;7.50;;
20593;SDS011;10455;48.732;10.266;2022-12-07T12:06:44;7.57;;;6.87;;
20593;SDS011;10455;48.732;10.266;2022-12-07T12:11:51;8.07;;;7.27;;
20593;SDS011;10455;48.732;10.266;2022-12-07T12:22:46;9.37;;;6.60;;
20593;SDS011;10455;48.732;10.266;2022-12-07T12:27:54;7.10;;;6.17;;
20593;SDS011;10455;48.732;10.266;2022-12-07T12:33:05;6.70;;;6.00;;
20593;SDS011;10455;48.732;10.266;2022-12-07T12:38:21;7.80;;;6.77;;
20593;SDS011;10455;48.732;10.266;2022-12-07T12:43:41;6.40;;;5.67;;
20593;SDS011;10455;48.732;10.266;2022-12-07T12:48:49;6.83;;;5.73;;
20593;SDS011;10455;48.732;10.266;2022-12-07T12:53:51;6.87;;;6.17;;
20593;SDS011;10455;48.732;10.266;2022-12-07T13:09:52;7.10;;;6.40;;
20593;SDS011;10455;48.732;10.266;2022-12-07T13:14:57;7.40;;;6.70;;
20593;SDS011;10455;48.732;10.266;2022-12-07T13:19:59;7.13;;;6.10;;
20593;SDS011;10455;48.732;10.266;2022-12-07T13:25:03;6.63;;;5.93;;
20593;SDS011;10455;48.732;10.266;2022-12-07T13:30:14;7.03;;;6.33;;
20593;SDS011;10455;48.732;10.266;2022-12-07T13:35:27;6.63;;;5.97;;
20593;SDS011;10455;48.732;10.266;2022-12-07T13:40:30;6.60;;;5.63;;
20593;SDS011;10455;48.732;10.266;2022-12-07T13:45:33;12.27;;;10.20;;
20593;SDS011;10455;48.732;10.266;2022-12-07T13:50:54;7.53;;;6.83;;
20593;SDS011;10455;48.732;10.266;2022-12-07T13:55:57;8.77;;;7.60;;
20593;SDS011;10455;48.732;10.266;2022-12-07T14:01:01;7.83;;;7.10;;
20593;SDS011;10455;48.732;10.266;2022-12-07T14:06:11;23.93;;;15.17;;
20593;SDS011;10455;48.732;10.266;2022-12-07T14:11:27;19.90;;;13.07;;
20593;SDS011;10455;48.732;10.266;2022-12-07T14:16:32;8.03;;;7.10;;
20593;SDS011;10455;48.732;10.266;2022-12-07T14:21:37;8.33;;;7.30;;
20593;SDS011;10455;48.732;10.266;2022-12-07T14:26:39;8.37;;;7.50;;
20593;SDS011;10455;48.732;10.266;2022-12-07T14:31:42;9.43;;;7.53;;
20593;SDS011;10455;48.732;10.266;2022-12-07T14:36:44;8.83;;;7.93;;
20593;SDS011;10455;48.732;10.266;2022-12-07T14:41:46;8.93;;;8.03;;
20593;SDS011;10455;48.732;10.266;2022-12-07T14:46:55;8.73;;;7.83;;
20593;SDS011;10455;48.732;10.266;2022-12-07T14:51:57;10.20;;;7.83;;
20593;SDS011;10455;48.732;10.266;2022-12-07T14:56:59;11.20;;;8.97;;
20593;SDS011;10455;48.732;10.266;2022-12-07T15:02:03;8.57;;;7.73;;
20593;SDS011;10455;48.732;10.266;2022-12-07T15:07:06;10.53;;;8.80;;
20593;SDS011;10455;48.732;10.266;2022-12-07T15:12:12;9.67;;;8.67;;
20593;SDS011;10455;48.732;10.266;2022-12-07T15:17:15;11.07;;;9.93;;
20593;SDS011;10455;48.732;10.266;2022-12-07T15:22:17;46.67;;;30.73;;
20593;SDS011;10455;48.732;10.266;2022-12-07T15:27:19;11.43;;;10.23;;
20593;SDS011;10455;48.732;10.266;2022-12-07T15:32:22;12.50;;;11.20;;
20593;SDS011;10455;48.732;10.266;2022-12-07T15:37:25;12.43;;;11.13;;
20593;SDS011;10455;48.732;10.266;2022-12-07T15:42:27;12.07;;;10.80;;
20593;SDS011;10455;48.732;10.266;2022-12-07T15:47:30;14.20;;;12.70;;
20593;SDS011;10455;48.732;10.266;2022-12-07T15:52:32;17.17;;;13.40;;
20593;SDS011;10455;48.732;10.266;2022-12-07T15:57:35;29.53;;;22.70;;
20593;SDS011;10455;48.732;10.266;2022-12-07T16:02:39;17.13;;;12.70;;
20593;SDS011;10455;48.732;10.266;2022-12-07T16:07:41;15.23;;;11.63;;
20593;SDS011;10455;48.732;10.266;2022-12-07T16:12:43;14.77;;;12.73;;
20593;SDS011;10455;48.732;10.266;2022-12-07T16:17:46;14.53;;;12.57;;
20593;SDS011;10455;48.732;10.266;2022-12-07T16:22:50;16.97;;;14.20;;
20593;SDS011;10455;48.732;10.266;2022-12-07T16:27:53;17.07;;;14.73;;
20593;SDS011;10455;48.732;10.266;2022-12-07T16:32:56;17.03;;;14.20;;
20593;SDS011;10455;48.732;10.266;2022-12-07T16:37:58;19.73;;;14.93;;
20593;SDS011;10455;48.732;10.266;2022-12-07T16:43:00;16.83;;;14.63;;
20593;SDS011;10455;48.732;10.266;2022-12-07T16:48:03;19.57;;;15.83;;
20593;SDS011;10455;48.732;10.266;2022-12-07T16:53:06;18.20;;;15.40;;
20593;SDS011;10455;48.732;10.266;2022-12-07T16:58:08;20.37;;;16.70;;
20593;SDS011;10455;48.732;10.266;2022-12-07T17:03:11;23.83;;;17.93;;
20593;SDS011;10455;48.732;10.266;2022-12-07T17:08:13;26.77;;;18.27;;
20593;SDS011;10455;48.732;10.266;2022-12-07T17:13:15;23.63;;;19.73;;
20593;SDS011;10455;48.732;10.266;2022-12-07T17:18:36;25.70;;;20.83;;
20593;SDS011;10455;48.732;10.266;2022-12-07T17:23:38;18.73;;;16.23;;
20593;SDS011;10455;48.732;10.266;2022-12-07T17:28:40;22.97;;;17.03;;
20593;SDS011;10455;48.732;10.266;2022-12-07T17:33:43;25.40;;;22.33;;
20593;SDS011;10455;48.732;10.266;2022-12-07T17:38:46;18.93;;;16.03;;
20593;SDS011;10455;48.732;10.266;2022-12-07T17:43:48;14.33;;;11.93;;
20593;SDS011;10455;48.732;10.266;2022-12-07T17:48:54;12.87;;;11.40;;
20593;SDS011;10455;48.732;10.266;2022-12-07T17:53:56;36.33;;;29.77;;
20593;SDS011;10455;48.732;10.266;2022-12-07T17:58:59;18.13;;;16.20;;
20593;SDS011;10455;48.732;10.266;2022-12-07T18:04:03;12.70;;;11.20;;
20593;SDS011;10455;48.732;10.266;2022-12-07T18:09:05;14.97;;;10.27;;
20593;SDS011;10455;48.732;10.266;2022-12-07T18:14:08;14.53;;;9.53;;
20593;SDS011;10455;48.732;10.266;2022-12-07T18:19:11;12.40;;;9.03;;
20593;SDS011;10455;48.732;10.266;2022-12-07T18:24:15;11.57;;;9.77;;
20593;SDS011;10455;48.732;10.266;2022-12-07T18:29:17;10.77;;;9.67;;
20593;SDS011;10455;48.732;10.266;2022-12-07T18:34:21;13.83;;;11.33;;
20593;SDS011;10455;48.732;10.266;2022-12-07T18:39:23;11.20;;;9.97;;
20593;SDS011;10455;48.732;10.266;2022-12-07T18:44:25;15.70;;;13.10;;
20593;SDS011;10455;48.732;10.266;2022-12-07T18:49:28;13.53;;;12.10;;
20593;SDS011;10455;48.732;10.266;2022-12-07T18:54:30;14.23;;;12.17;;
20593;SDS011;10455;48.732;10.266;2022-12-07T18:59:32;14.27;;;12.10;;
20593;SDS011;10455;48.732;10.266;2022-12-07T19:04:50;15.10;;;11.53;;
20593;SDS011;10455;48.732;10.266;2022-12-07T19:09:52;15.23;;;12.20;;
20593;SDS011;10455;48.732;10.266;2022-12-07T19:14:54;37.13;;;23.83;;
20593;SDS011;10455;48.732;10.266;2022-12-07T19:19:58;59.17;;;39.63;;
20593;SDS011;10455;48.732;10.266;2022-12-07T19:24:59;26.20;;;20.30;;
20593;SDS011;10455;48.732;10.266;2022-12-07T19:30:03;21.43;;;14.83;;
20593;SDS011;10455;48.732;10.266;2022-12-07T19:35:08;21.53;;;15.87;;
20593;SDS011;10455;48.732;10.266;2022-12-07T19:40:10;22.37;;;15.97;;
20593;SDS011;10455;48.732;10.266;2022-12-07T19:45:12;19.20;;;15.57;;
20593;SDS011;10455;48.732;10.266;2022-12-07T19:50:15;24.03;;;16.87;;
20593;SDS011;10455;48.732;10.266;2022-12-07T19:55:17;19.47;;;14.90;;
20593;SDS011;10455;48.732;10.266;2022-12-07T20:00:19;22.50;;;17.00;;
20593;SDS011;10455;48.732;10.266;2022-12-07T20:05:23;24.73;;;16.50;;
20593;SDS011;10455;48.732;10.266;2022-12-07T20:10:25;25.97;;;18.23;;
20593;SDS011;10455;48.732;10.266;2022-12-07T20:15:27;26.60;;;16.23;;
20593;SDS011;10455;48.732;10.266;2022-12-07T20:20:30;21.30;;;15.03;;
20593;SDS011;10455;48.732;10.266;2022-12-07T20:25:34;21.13;;;17.33;;
20593;SDS011;10455;48.732;10.266;2022-12-07T20:30:36;27.30;;;19.00;;
20593;SDS011;10455;48.732;10.266;2022-12-07T20:35:39;17.03;;;14.40;;
20593;SDS011;10455;48.732;10.266;2022-12-07T20:40:44;20.00;;;15.43;;
20593;SDS011;10455;48.732;10.266;2022-12-07T20:45:47;20.63;;;15.60;;
20593;SDS011;10455;48.732;10.266;2022-12-07T20:50:51;20.63;;;15.17;;
20593;SDS011;10455;48.732;10.266;2022-12-07T20:55:53;21.47;;;15.93;;
20593;SDS011;10455;48.732;10.266;2022-12-07T21:00:58;20.77;;;14.97;;
20593;SDS011;10455;48.732;10.266;2022-12-07T21:06:02;23.33;;;16.70;;
20593;SDS011;10455;48.732;10.266;2022-12-07T21:11:07;22.13;;;17.80;;
20593;SDS011;10455;48.732;10.266;2022-12-07T21:16:09;27.50;;;17.20;;
20593;SDS011;10455;48.732;10.266;2022-12-07T21:21:14;24.10;;;17.00;;
20593;SDS011;10455;48.732;10.266;2022-12-07T21:26:18;23.30;;;16.83;;
20593;SDS011;10455;48.732;10.266;2022-12-07T21:31:22;26.50;;;15.97;;
20593;SDS011;10455;48.732;10.266;2022-12-07T21:36:25;25.47;;;17.27;;
20593;SDS011;10455;48.732;10.266;2022-12-07T21:41:28;30.73;;;19.00;;
20593;SDS011;10455;48.732;10.266;2022-12-07T21:46:31;26.77;;;18.77;;
20593;SDS011;10455;48.732;10.266;2022-12-07T21:51:34;23.73;;;16.97;;
20593;SDS011;10455;48.732;10.266;2022-12-07T21:56:37;23.20;;;16.60;;
20593;SDS011;10455;48.732;10.266;2022-12-07T22:01:41;22.03;;;16.97;;
20593;SDS011;10455;48.732;10.266;2022-12-07T22:06:47;21.90;;;17.03;;
20593;SDS011;10455;48.732;10.266;2022-12-07T22:11:50;23.00;;;17.03;;
20593;SDS011;10455;48.732;10.266;2022-12-07T22:16:52;25.03;;;16.30;;
20593;SDS011;10455;48.732;10.266;2022-12-07T22:21:55;26.57;;;14.90;;
20593;SDS011;10455;48.732;10.266;2022-12-07T22:26:57;23.13;;;15.60;;
20593;SDS011;10455;48.732;10.266;2022-12-07T22:32:00;23.13;;;14.50;;
20593;SDS011;10455;48.732;10.266;2022-12-07T22:37:03;21.70;;;13.13;;
20593;SDS011;10455;48.732;10.266;2022-12-07T22:42:05;22.10;;;14.70;;
20593;SDS011;10455;48.732;10.266;2022-12-07T22:47:07;23.50;;;15.33;;
20593;SDS011;10455;48.732;10.266;2022-12-07T22:52:10;26.10;;;15.03;;
20593;SDS011;10455;48.732;10.266;2022-12-07T22:57:12;20.57;;;13.80;;
20593;SDS011;10455;48.732;10.266;2022-12-07T23:02:14;19.73;;;15.33;;
20593;SDS011;10455;48.732;10.266;2022-12-07T23:07:17;23.37;;;16.53;;
20593;SDS011;10455;48.732;10.266;2022-12-07T23:12:19;22.73;;;16.30;;
20593;SDS011;10455;48.732;10.266;2022-12-07T23:17:38;21.87;;;16.23;;
20593;SDS011;10455;48.732;10.266;2022-12-07T23:22:42;21.73;;;15.90;;
20593;SDS011;10455;48.732;10.266;2022-12-07T23:27:44;23.80;;;16.10;;
20593;SDS011;10455;48.732;10.266;2022-12-07T23:32:46;28.07;;;17.87;;
20593;SDS011;10455;48.732;10.266;2022-12-07T23:37:49;24.90;;;18.77;;
20593;SDS011;10455;48.732;10.266;2022-12-07T23:42:51;30.00;;;20.93;;
20593;SDS011;10455;48.732;10.266;2022-12-07T23:47:53;29.70;;;21.30;;
20593;SDS011;10455;48.732;10.266;2022-12-07T23:52:56;28.47;;;21.50;;
20593;SDS011;10455;48.732;10.266;2022-12-07T23:57:58;32.17;;;22.63;;
